createdAt,value
2019-05-13T00:00:53.933Z,46.13
2019-05-13T00:01:53.821Z,45.90
2019-05-13T00:02:54.235Z,45.93
2019-05-13T00:03:54.093Z,46.03
2019-05-13T00:04:53.219Z,45.83
2019-05-13T00:05:53.619Z,46.03
2019-05-13T00:06:55.111Z,45.31
2019-05-13T00:07:54.043Z,45.95
2019-05-13T00:08:54.212Z,46.34
2019-05-13T00:09:54.238Z,45.72
2019-05-13T00:10:53.992Z,46.34
2019-05-13T00:11:53.870Z,45.93
2019-05-13T00:12:53.882Z,45.60
2019-05-13T00:13:53.699Z,45.18
2019-05-13T00:14:53.513Z,46.11
2019-05-13T00:15:51.680Z,45.60
2019-05-13T00:16:53.651Z,46.11
2019-05-13T00:17:51.667Z,45.42
2019-05-13T00:18:53.486Z,45.50
2019-05-13T00:19:53.202Z,45.31
2019-05-13T00:20:54.027Z,45.29
2019-05-13T00:21:51.620Z,45.90
2019-05-13T00:22:53.650Z,45.18
2019-05-13T00:23:53.472Z,45.29
2019-05-13T00:24:51.589Z,45.50
2019-05-13T00:25:51.572Z,44.98
2019-05-13T00:26:53.190Z,44.88
2019-05-13T00:27:53.604Z,45.29
2019-05-13T00:28:53.437Z,45.18
2019-05-13T00:29:53.434Z,45.18
2019-05-13T00:30:51.517Z,45.31
2019-05-13T00:31:53.871Z,45.09
2019-05-13T00:32:51.498Z,45.60
2019-05-13T00:33:53.247Z,45.60
2019-05-13T00:34:53.388Z,45.83
2019-05-13T00:35:53.461Z,45.10
2019-05-13T00:37:07.365Z,46.13
2019-05-13T00:37:54.274Z,45.31
2019-05-13T00:38:53.489Z,45.72
2019-05-13T00:39:51.420Z,46.03
2019-05-13T00:40:51.415Z,45.93
2019-05-13T00:41:53.175Z,46.03
2019-05-13T00:42:51.390Z,45.93
2019-05-13T00:43:53.250Z,46.13
2019-05-13T00:44:53.217Z,45.72
2019-05-13T00:45:53.393Z,45.62
2019-05-13T00:46:53.568Z,45.62
2019-05-13T00:47:53.581Z,46.34
2019-05-13T00:48:51.319Z,47.16
2019-05-13T00:49:51.315Z,47.26
2019-05-13T00:50:51.317Z,46.25
2019-05-13T00:51:53.342Z,46.87
2019-05-13T00:52:53.545Z,47.08
2019-05-13T00:53:53.520Z,47.18
2019-05-13T00:54:53.022Z,46.67
2019-05-13T00:55:53.422Z,47.79
2019-05-13T00:56:51.240Z,47.79
2019-05-13T00:57:53.948Z,47.69
2019-05-13T00:58:51.232Z,47.08
2019-05-13T00:59:51.209Z,47.92
2019-05-13T01:00:51.228Z,48.33
2019-05-13T01:01:53.344Z,48.46
2019-05-13T01:02:53.251Z,48.54
2019-05-13T01:03:53.196Z,48.35
2019-05-13T01:04:53.427Z,48.76
2019-05-13T01:05:53.416Z,48.97
2019-05-13T01:06:51.125Z,48.76
2019-05-13T01:07:53.548Z,48.76
2019-05-13T01:08:53.493Z,49.07
2019-05-13T01:09:53.389Z,49.58
2019-05-13T01:10:53.525Z,49.38
2019-05-13T01:11:51.079Z,49.58
2019-05-13T01:12:51.055Z,49.48
2019-05-13T01:13:53.433Z,49.48
2019-05-13T01:14:53.320Z,49.48
2019-05-13T01:15:51.029Z,49.48
2019-05-13T01:16:51.038Z,49.38
2019-05-13T01:17:53.378Z,49.07
2019-05-13T01:18:50.987Z,49.69
2019-05-13T01:19:50.981Z,49.07
2019-05-13T01:20:50.977Z,49.38
2019-05-13T01:21:50.996Z,49.89
2019-05-13T01:22:50.956Z,49.79
2019-05-13T01:23:50.945Z,50.40
2019-05-13T01:24:50.929Z,50.53
2019-05-13T01:25:50.933Z,50.30
2019-05-13T01:26:50.901Z,50.71
2019-05-13T01:27:50.903Z,51.02
2019-05-13T01:28:50.891Z,50.82
2019-05-13T01:29:50.869Z,50.40
2019-05-13T01:30:50.855Z,50.92
2019-05-13T01:31:50.857Z,51.23
2019-05-13T01:32:50.837Z,52.04
2019-05-13T01:33:50.827Z,51.25
2019-05-13T01:34:50.809Z,51.84
2019-05-13T01:35:50.793Z,51.53
2019-05-13T01:36:50.788Z,51.56
2019-05-13T01:37:50.771Z,51.53
2019-05-13T01:38:50.769Z,51.53
2019-05-13T01:39:50.757Z,51.95
2019-05-13T01:40:50.743Z,51.87
2019-05-13T01:41:50.734Z,51.64
2019-05-13T01:42:50.718Z,51.43
2019-05-13T01:43:50.705Z,51.25
2019-05-13T01:44:50.693Z,52.15
2019-05-13T01:45:50.743Z,51.76
2019-05-13T01:46:50.725Z,52.17
2019-05-13T01:47:50.743Z,52.69
2019-05-13T01:48:50.653Z,51.97
2019-05-13T01:49:50.637Z,52.89
2019-05-13T01:50:50.636Z,52.15
2019-05-13T01:51:50.625Z,52.17
2019-05-13T01:52:50.603Z,52.28
2019-05-13T01:53:50.602Z,52.07
2019-05-13T01:54:50.584Z,52.28
2019-05-13T01:55:50.583Z,52.28
2019-05-13T01:56:50.585Z,51.87
2019-05-13T01:57:50.555Z,52.89
2019-05-13T01:58:50.541Z,52.48
2019-05-13T01:59:50.532Z,52.89
2019-05-13T02:00:51.767Z,52.79
2019-05-13T02:01:50.523Z,52.92
2019-05-13T02:02:50.509Z,53.10
2019-05-13T02:03:50.497Z,52.79
2019-05-13T02:04:50.496Z,52.89
2019-05-13T02:05:50.478Z,52.69
2019-05-13T02:06:50.460Z,52.28
2019-05-13T02:07:59.686Z,53.10
2019-05-13T02:08:51.430Z,52.89
2019-05-13T02:09:50.421Z,53.41
2019-05-13T02:10:50.419Z,52.40
2019-05-13T02:11:50.409Z,52.48
2019-05-13T02:12:50.402Z,53.10
2019-05-13T02:13:50.392Z,52.17
2019-05-13T02:14:50.394Z,52.40
2019-05-13T02:15:50.429Z,52.38
2019-05-13T02:16:50.361Z,52.28
2019-05-13T02:17:50.341Z,53.02
2019-05-13T02:18:50.332Z,53.74
2019-05-13T02:19:50.328Z,53.33
2019-05-13T02:20:50.308Z,53.74
2019-05-13T02:21:50.292Z,53.74
2019-05-13T02:22:50.283Z,54.36
2019-05-13T02:23:50.276Z,54.15
2019-05-13T02:24:50.268Z,53.94
2019-05-13T02:25:50.248Z,54.15
2019-05-13T02:26:50.240Z,54.05
2019-05-13T02:27:50.236Z,54.15
2019-05-13T02:28:50.224Z,54.28
2019-05-13T02:29:50.219Z,54.38
2019-05-13T02:30:50.208Z,54.90
2019-05-13T02:31:55.191Z,55.00
2019-05-13T02:32:53.071Z,55.00
2019-05-13T02:33:52.934Z,54.87
2019-05-13T02:34:53.071Z,55.10
2019-05-13T02:35:52.950Z,54.66
2019-05-13T02:36:52.713Z,55.38
2019-05-13T02:37:52.491Z,54.59
2019-05-13T02:38:52.957Z,54.66
2019-05-13T02:39:52.944Z,54.59
2019-05-13T02:40:52.628Z,55.10
2019-05-13T02:41:52.627Z,54.49
2019-05-13T02:42:52.320Z,55.28
2019-05-13T02:43:52.600Z,54.56
2019-05-13T02:44:52.933Z,55.62
2019-05-13T02:45:53.147Z,55.82
2019-05-13T02:46:52.427Z,55.21
2019-05-13T02:47:52.127Z,55.62
2019-05-13T02:48:52.824Z,55.62
2019-05-13T02:49:53.056Z,55.62
2019-05-13T02:50:52.884Z,55.93
2019-05-13T02:51:49.971Z,55.82
2019-05-13T02:52:52.940Z,55.30
2019-05-13T02:53:52.417Z,55.51
2019-05-13T02:54:52.751Z,55.82
2019-05-13T02:55:52.287Z,55.82
2019-05-13T02:56:52.560Z,55.93
2019-05-13T02:57:52.684Z,55.82
2019-05-13T02:58:52.643Z,56.02
2019-05-13T02:59:52.645Z,55.72
2019-05-13T03:00:53.340Z,55.72
2019-05-13T03:01:53.372Z,55.82
2019-05-13T03:02:52.399Z,55.82
2019-05-13T03:03:52.817Z,55.85
2019-05-13T03:04:52.321Z,56.15
2019-05-13T03:05:52.736Z,56.05
2019-05-13T03:06:52.129Z,56.67
2019-05-13T03:07:52.981Z,56.57
2019-05-13T03:08:53.990Z,56.46
2019-05-13T03:09:52.726Z,56.36
2019-05-13T03:10:52.716Z,56.67
2019-05-13T03:11:53.242Z,56.98
2019-05-13T03:12:53.156Z,56.87
2019-05-13T03:13:52.631Z,56.67
2019-05-13T03:14:53.059Z,56.67
2019-05-13T03:15:52.217Z,56.26
2019-05-13T03:16:52.555Z,56.98
2019-05-13T03:17:52.434Z,57.29
2019-05-13T03:18:52.321Z,56.87
2019-05-13T03:19:53.104Z,57.82
2019-05-13T03:20:52.655Z,57.90
2019-05-13T03:21:52.461Z,57.82
2019-05-13T03:22:52.498Z,58.34
2019-05-13T03:23:52.595Z,58.03
2019-05-13T03:24:52.302Z,58.34
2019-05-13T03:25:49.602Z,58.34
2019-05-13T03:26:52.946Z,58.54
2019-05-13T03:27:49.582Z,58.24
2019-05-13T03:28:52.392Z,58.62
2019-05-13T03:29:49.569Z,58.31
2019-05-13T03:30:50.926Z,58.03
2019-05-13T03:31:54.927Z,58.86
2019-05-13T03:32:55.200Z,58.54
2019-05-13T03:33:55.552Z,58.21
2019-05-13T03:34:56.263Z,58.11
2019-05-13T03:35:55.974Z,57.90
2019-05-13T03:36:56.381Z,58.83
2019-05-13T03:37:52.788Z,58.73
2019-05-13T03:39:01.609Z,58.24
2019-05-13T03:39:52.327Z,58.86
2019-05-13T03:40:52.445Z,59.47
2019-05-13T03:41:52.588Z,59.27
2019-05-13T03:42:53.016Z,59.55
2019-05-13T03:43:49.401Z,59.24
2019-05-13T03:44:52.324Z,59.24
2019-05-13T03:45:52.419Z,59.37
2019-05-13T03:46:52.660Z,58.93
2019-05-13T03:47:52.547Z,58.86
2019-05-13T03:48:49.345Z,58.54
2019-05-13T03:49:49.341Z,58.96
2019-05-13T03:50:49.325Z,58.65
2019-05-13T03:51:49.309Z,58.96
2019-05-13T03:52:52.240Z,59.58
2019-05-13T03:53:49.293Z,58.86
2019-05-13T03:54:52.013Z,58.83
2019-05-13T03:55:49.276Z,58.54
2019-05-13T03:56:52.786Z,58.96
2019-05-13T03:57:49.248Z,59.27
2019-05-13T03:58:49.241Z,58.86
2019-05-13T03:59:52.415Z,59.17
2019-05-13T04:00:51.810Z,59.37
2019-05-13T04:01:52.385Z,59.50
2019-05-13T04:02:51.936Z,59.47
2019-05-13T04:03:52.532Z,59.06
2019-05-13T04:04:49.167Z,59.58
2019-05-13T04:05:52.341Z,59.27
2019-05-13T04:06:49.159Z,59.27
2019-05-13T04:07:52.047Z,59.27
2019-05-13T04:08:49.122Z,58.86
2019-05-13T04:09:52.340Z,58.86
2019-05-13T04:10:52.278Z,59.06
2019-05-13T04:11:52.357Z,59.47
2019-05-13T04:12:52.395Z,59.17
2019-05-13T04:13:52.426Z,59.47
2019-05-13T04:14:49.074Z,59.37
2019-05-13T04:15:49.049Z,59.47
2019-05-13T04:16:49.063Z,59.58
2019-05-13T04:17:49.032Z,59.37
2019-05-13T04:18:49.020Z,59.47
2019-05-13T04:19:49.006Z,59.99
2019-05-13T04:20:48.990Z,59.89
2019-05-13T04:21:48.981Z,59.78
2019-05-13T04:22:48.985Z,59.58
2019-05-13T04:23:48.965Z,59.58
2019-05-13T04:24:48.956Z,60.19
2019-05-13T04:25:48.941Z,60.22
2019-05-13T04:26:48.931Z,60.30
2019-05-13T04:27:52.226Z,59.99
2019-05-13T04:28:52.409Z,60.22
2019-05-13T04:29:52.507Z,60.43
2019-05-13T04:30:48.881Z,60.91
2019-05-13T04:31:48.887Z,60.84
2019-05-13T04:32:48.879Z,61.12
2019-05-13T04:33:48.871Z,61.05
2019-05-13T04:34:48.845Z,60.74
2019-05-13T04:35:48.875Z,60.61
2019-05-13T04:36:51.888Z,61.53
2019-05-13T04:37:52.194Z,61.56
2019-05-13T04:38:48.807Z,61.46
2019-05-13T04:39:52.639Z,61.43
2019-05-13T04:40:52.638Z,61.43
2019-05-13T04:41:48.781Z,61.43
2019-05-13T04:42:48.754Z,61.43
2019-05-13T04:43:48.774Z,61.43
2019-05-13T04:44:48.732Z,61.74
2019-05-13T04:45:52.212Z,61.74
2019-05-13T04:46:48.715Z,61.94
2019-05-13T04:47:48.703Z,62.07
2019-05-13T04:48:48.703Z,61.74
2019-05-13T04:49:48.677Z,61.94
2019-05-13T04:50:48.678Z,61.94
2019-05-13T04:51:52.123Z,61.94
2019-05-13T04:52:48.657Z,61.74
2019-05-13T04:53:53.345Z,62.35
2019-05-13T04:54:52.792Z,62.25
2019-05-13T04:55:48.613Z,62.35
2019-05-13T04:56:48.629Z,62.66
2019-05-13T04:57:48.616Z,62.84
2019-05-13T04:58:48.596Z,62.35
2019-05-13T04:59:48.595Z,62.33
2019-05-13T05:00:50.021Z,62.74
2019-05-13T05:01:57.837Z,62.87
2019-05-13T05:02:54.675Z,62.74
2019-05-13T05:03:52.765Z,62.63
2019-05-13T05:04:48.515Z,62.74
2019-05-13T05:05:48.504Z,62.53
2019-05-13T05:06:48.494Z,63.15
2019-05-13T05:07:48.480Z,63.05
2019-05-13T05:08:48.475Z,62.84
2019-05-13T05:10:13.271Z,62.71
2019-05-13T05:10:51.102Z,63.35
2019-05-13T05:11:48.442Z,63.25
2019-05-13T05:12:48.431Z,63.32
2019-05-13T05:13:48.420Z,63.64
2019-05-13T05:14:48.415Z,63.32
2019-05-13T05:15:48.440Z,63.53
2019-05-13T05:16:48.390Z,63.22
2019-05-13T05:17:48.440Z,62.68
2019-05-13T05:18:48.360Z,62.78
2019-05-13T05:19:48.351Z,62.78
2019-05-13T05:20:48.351Z,62.37
2019-05-13T05:21:51.721Z,62.37
2019-05-13T05:22:48.319Z,62.58
2019-05-13T05:23:48.305Z,62.88
2019-05-13T05:24:48.304Z,63.43
2019-05-13T05:25:48.292Z,63.09
2019-05-13T05:26:48.279Z,63.09
2019-05-13T05:27:48.304Z,63.20
2019-05-13T05:28:48.252Z,63.71
2019-05-13T05:29:48.240Z,63.60
2019-05-13T05:30:48.234Z,63.71
2019-05-13T05:31:48.240Z,63.91
2019-05-13T05:32:48.390Z,64.25
2019-05-13T05:33:48.200Z,63.64
2019-05-13T05:34:48.188Z,63.71
2019-05-13T05:35:48.182Z,63.78
2019-05-13T05:36:48.169Z,63.06
2019-05-13T05:37:48.161Z,63.17
2019-05-13T05:38:48.145Z,62.85
2019-05-13T05:39:48.143Z,62.55
2019-05-13T05:40:48.121Z,62.83
2019-05-13T05:41:48.492Z,62.62
2019-05-13T05:42:48.106Z,62.52
2019-05-13T05:43:48.099Z,62.41
2019-05-13T05:44:48.100Z,62.62
2019-05-13T05:45:48.068Z,62.52
2019-05-13T05:46:48.053Z,62.41
2019-05-13T05:47:48.043Z,62.93
2019-05-13T05:48:50.043Z,62.90
2019-05-13T05:49:48.034Z,62.41
2019-05-13T05:50:48.015Z,62.52
2019-05-13T05:51:48.006Z,63.34
2019-05-13T05:52:47.988Z,63.24
2019-05-13T05:53:47.981Z,62.93
2019-05-13T05:54:47.966Z,63.44
2019-05-13T05:55:47.992Z,62.73
2019-05-13T05:56:47.949Z,62.93
2019-05-13T05:57:47.931Z,62.73
2019-05-13T05:58:47.924Z,62.73
2019-05-13T05:59:47.907Z,62.70
2019-05-13T06:00:47.910Z,62.49
2019-05-13T06:01:47.883Z,62.49
2019-05-13T06:02:47.894Z,62.70
2019-05-13T06:03:47.862Z,61.87
2019-05-13T06:04:47.857Z,61.74
2019-05-13T06:05:47.846Z,61.67
2019-05-13T06:06:47.840Z,61.64
2019-05-13T06:07:47.816Z,61.64
2019-05-13T06:08:47.809Z,61.85
2019-05-13T06:09:47.806Z,61.54
2019-05-13T06:10:50.440Z,61.95
2019-05-13T06:11:48.780Z,62.05
2019-05-13T06:12:47.834Z,62.05
2019-05-13T06:13:47.794Z,62.49
2019-05-13T06:14:47.746Z,62.46
2019-05-13T06:15:47.777Z,62.56
2019-05-13T06:16:47.735Z,62.36
2019-05-13T06:17:47.718Z,62.56
2019-05-13T06:18:47.693Z,62.26
2019-05-13T06:19:47.692Z,62.36
2019-05-13T06:20:47.715Z,61.82
2019-05-13T06:21:47.663Z,61.92
2019-05-13T06:22:47.659Z,61.41
2019-05-13T06:23:47.668Z,61.82
2019-05-13T06:24:47.648Z,61.92
2019-05-13T06:25:47.621Z,61.51
2019-05-13T06:26:47.608Z,61.61
2019-05-13T06:27:47.593Z,62.12
2019-05-13T06:28:47.599Z,61.92
2019-05-13T06:29:49.349Z,61.82
2019-05-13T06:30:47.569Z,61.41
2019-05-13T06:31:47.557Z,61.82
2019-05-13T06:32:47.535Z,61.82
2019-05-13T06:33:47.529Z,61.41
2019-05-13T06:34:47.525Z,61.51
2019-05-13T06:35:47.519Z,61.92
2019-05-13T06:36:47.499Z,61.48
2019-05-13T06:37:47.485Z,62.61
2019-05-13T06:38:47.473Z,61.48
2019-05-13T06:39:47.470Z,60.84
2019-05-13T06:40:59.274Z,60.94
2019-05-13T06:41:48.441Z,61.45
2019-05-13T06:42:47.440Z,60.53
2019-05-13T06:43:47.415Z,59.55
2019-05-13T06:44:47.410Z,58.17
2019-05-13T06:45:47.399Z,56.20
2019-05-13T06:46:47.390Z,55.99
2019-05-13T06:47:47.396Z,56.61
2019-05-13T06:48:47.370Z,56.79
2019-05-13T06:49:47.352Z,56.20
2019-05-13T06:50:47.353Z,56.51
2019-05-13T06:51:47.402Z,57.93
2019-05-13T06:52:47.384Z,56.71
2019-05-13T06:53:47.311Z,57.12
2019-05-13T06:54:47.297Z,57.43
2019-05-13T06:55:47.281Z,56.92
2019-05-13T06:56:47.274Z,56.20
2019-05-13T06:57:47.434Z,56.27
2019-05-13T06:58:47.280Z,56.27
2019-05-13T06:59:47.251Z,55.66
2019-05-13T07:00:47.237Z,55.46
2019-05-13T07:01:47.219Z,56.27
2019-05-13T07:02:47.221Z,55.26
2019-05-13T07:03:47.193Z,54.95
2019-05-13T07:04:47.191Z,54.51
2019-05-13T07:05:47.197Z,54.51
2019-05-13T07:06:47.166Z,54.28
2019-05-13T07:07:47.169Z,54.41
2019-05-13T07:08:47.151Z,54.31
2019-05-13T07:09:52.225Z,54.00
2019-05-13T07:10:47.133Z,54.21
2019-05-13T07:11:47.247Z,55.02
2019-05-13T07:12:47.094Z,54.82
2019-05-13T07:13:47.113Z,54.51
2019-05-13T07:14:47.102Z,53.88
2019-05-13T07:15:47.070Z,53.36
2019-05-13T07:16:47.055Z,53.16
2019-05-13T07:17:47.047Z,53.36
2019-05-13T07:18:47.033Z,52.14
2019-05-13T07:19:47.023Z,52.55
2019-05-13T07:20:47.010Z,53.16
2019-05-13T07:21:47.010Z,53.16
2019-05-13T07:22:47.003Z,52.65
2019-05-13T07:23:46.975Z,53.03
2019-05-13T07:24:46.980Z,53.75
2019-05-13T07:25:46.966Z,53.34
2019-05-13T07:26:46.942Z,52.09
2019-05-13T07:27:46.936Z,52.42
2019-05-13T07:28:46.915Z,52.01
2019-05-13T07:29:46.911Z,52.53
2019-05-13T07:30:46.900Z,52.73
2019-05-13T07:31:46.888Z,52.75
2019-05-13T07:32:46.874Z,53.06
2019-05-13T07:33:46.885Z,52.04
2019-05-13T07:34:46.865Z,51.93
2019-05-13T07:35:46.867Z,52.55
2019-05-13T07:36:46.841Z,52.96
2019-05-13T07:37:46.817Z,52.75
2019-05-13T07:38:46.816Z,52.75
2019-05-13T07:39:46.810Z,52.83
2019-05-13T07:40:46.799Z,52.22
2019-05-13T07:41:46.792Z,52.42
2019-05-13T07:42:46.777Z,52.73
2019-05-13T07:43:46.764Z,52.75
2019-05-13T07:44:46.755Z,53.57
2019-05-13T07:45:46.746Z,53.36
2019-05-13T07:46:46.728Z,53.64
2019-05-13T07:47:46.716Z,53.34
2019-05-13T07:48:46.722Z,52.62
2019-05-13T07:49:46.724Z,52.60
2019-05-13T07:50:59.028Z,52.50
2019-05-13T07:51:47.674Z,51.89
2019-05-13T07:52:46.652Z,51.25
2019-05-13T07:53:46.661Z,51.46
2019-05-13T07:54:46.664Z,50.74
2019-05-13T07:55:46.629Z,48.81
2019-05-13T07:56:46.621Z,49.11
2019-05-13T07:57:46.600Z,48.19
2019-05-13T07:58:46.595Z,47.87
2019-05-13T07:59:46.609Z,49.29
2019-05-13T08:00:46.569Z,49.19
2019-05-13T08:01:46.570Z,49.09
2019-05-13T08:02:46.544Z,48.96
2019-05-13T08:03:46.534Z,48.56
2019-05-13T08:04:49.399Z,48.48
2019-05-13T08:05:46.525Z,47.66
2019-05-13T08:06:46.502Z,47.16
2019-05-13T08:07:46.508Z,47.26
2019-05-13T08:08:46.504Z,47.26
2019-05-13T08:09:46.472Z,47.66
2019-05-13T08:10:46.468Z,47.56
2019-05-13T08:12:02.233Z,47.36
2019-05-13T08:12:47.448Z,47.34
2019-05-13T08:13:46.427Z,46.83
2019-05-13T08:14:46.422Z,45.10
2019-05-13T08:15:46.408Z,45.38
2019-05-13T08:16:46.407Z,45.59
2019-05-13T08:17:47.658Z,44.85
2019-05-13T08:18:46.382Z,45.26
2019-05-13T08:19:46.364Z,44.45
2019-05-13T08:20:46.358Z,42.63
2019-05-13T08:21:46.359Z,43.75
2019-05-13T08:22:46.366Z,42.43
2019-05-13T08:23:46.312Z,40.39
2019-05-13T08:24:46.341Z,39.69
2019-05-13T08:25:46.294Z,40.50
2019-05-13T08:26:49.915Z,40.39
2019-05-13T08:27:47.270Z,39.07
2019-05-13T08:29:00.041Z,39.48
2019-05-13T08:29:47.262Z,39.78
2019-05-13T08:30:46.246Z,39.78
2019-05-13T08:31:46.240Z,40.80
2019-05-13T08:32:46.225Z,42.13
2019-05-13T08:33:46.213Z,42.02
2019-05-13T08:34:46.208Z,40.39
2019-05-13T08:35:47.069Z,42.14
2019-05-13T08:36:47.170Z,42.14
2019-05-13T08:37:46.172Z,42.04
2019-05-13T08:38:46.153Z,42.55
2019-05-13T08:39:46.147Z,41.94
2019-05-13T08:40:46.132Z,42.25
2019-05-13T08:41:46.118Z,42.65
2019-05-13T08:42:46.131Z,42.04
2019-05-13T08:43:46.090Z,41.25
2019-05-13T08:44:46.092Z,42.16
2019-05-13T08:45:46.081Z,40.84
2019-05-13T08:46:46.070Z,40.33
2019-05-13T08:47:46.055Z,40.53
2019-05-13T08:48:46.038Z,40.74
2019-05-13T08:49:46.034Z,41.45
2019-05-13T08:50:46.023Z,41.94
2019-05-13T08:51:46.003Z,42.04
2019-05-13T08:52:46.006Z,39.80
2019-05-13T08:53:45.994Z,40.09
2019-05-13T08:54:45.988Z,39.58
2019-05-13T08:55:45.971Z,40.19
2019-05-13T08:56:45.964Z,40.82
2019-05-13T08:57:45.945Z,40.52
2019-05-13T08:58:45.934Z,38.99
2019-05-13T08:59:45.914Z,38.99
2019-05-13T09:00:45.909Z,37.54
2019-05-13T09:01:45.924Z,36.63
2019-05-13T09:02:45.892Z,36.32
2019-05-13T09:03:45.875Z,37.24
2019-05-13T09:04:45.861Z,36.83
2019-05-13T09:05:45.865Z,37.04
2019-05-13T09:06:45.853Z,37.34
2019-05-13T09:07:45.845Z,35.90
2019-05-13T09:08:45.836Z,36.39
2019-05-13T09:09:46.499Z,34.56
2019-05-13T09:10:45.788Z,33.83
2019-05-13T09:11:45.788Z,33.44
2019-05-13T09:12:45.786Z,33.54
2019-05-13T09:13:45.766Z,33.53
2019-05-13T09:14:45.756Z,33.12
2019-05-13T09:15:45.744Z,32.21
2019-05-13T09:16:45.730Z,33.01
2019-05-13T09:17:45.743Z,33.41
2019-05-13T09:18:45.730Z,33.83
2019-05-13T09:19:45.697Z,35.77
2019-05-13T09:20:45.690Z,36.68
2019-05-13T09:21:45.675Z,36.47
2019-05-13T09:22:45.671Z,37.39
2019-05-13T09:23:45.663Z,38.32
2019-05-13T09:24:45.647Z,38.32
2019-05-13T09:25:45.632Z,38.22
2019-05-13T09:26:45.659Z,38.54
2019-05-13T09:27:45.615Z,38.65
2019-05-13T09:28:45.613Z,37.02
2019-05-13T09:29:45.588Z,37.00
2019-05-13T09:30:45.570Z,34.78
2019-05-13T09:31:45.571Z,33.95
2019-05-13T09:32:45.546Z,34.65
2019-05-13T09:33:45.558Z,35.04
2019-05-13T09:34:45.540Z,34.11
2019-05-13T09:35:45.524Z,36.85
2019-05-13T09:36:45.513Z,36.85
2019-05-13T09:37:45.496Z,37.05
2019-05-13T09:38:45.491Z,37.46
2019-05-13T09:39:45.473Z,35.73
2019-05-13T09:40:45.467Z,36.36
2019-05-13T09:41:45.457Z,35.55
2019-05-13T09:42:51.514Z,36.97
2019-05-13T09:43:46.430Z,36.56
2019-05-13T09:44:45.427Z,35.95
2019-05-13T09:45:45.411Z,34.83
2019-05-13T09:46:45.431Z,34.95
2019-05-13T09:47:45.391Z,34.34
2019-05-13T09:48:45.378Z,34.65
2019-05-13T09:49:45.374Z,34.44
2019-05-13T09:50:45.358Z,34.75
2019-05-13T09:51:45.347Z,34.05
2019-05-13T09:52:45.365Z,34.34
2019-05-13T09:53:45.364Z,34.34
2019-05-13T09:54:45.395Z,34.97
2019-05-13T09:55:45.302Z,34.97
2019-05-13T09:56:45.288Z,35.27
2019-05-13T09:57:45.287Z,36.17
2019-05-13T09:58:45.262Z,35.86
2019-05-13T09:59:45.263Z,33.83
2019-05-13T10:00:45.250Z,34.04
2019-05-13T10:01:45.240Z,33.02
2019-05-13T10:02:45.270Z,33.02
2019-05-13T10:03:55.024Z,34.34
2019-05-13T10:04:46.210Z,34.34
2019-05-13T10:05:45.193Z,34.22
2019-05-13T10:06:45.311Z,34.22
2019-05-13T10:07:45.169Z,34.83
2019-05-13T10:08:45.154Z,35.04
2019-05-13T10:09:48.242Z,35.44
2019-05-13T10:10:45.138Z,34.94
2019-05-13T10:11:45.117Z,35.75
2019-05-13T10:12:45.113Z,35.75
2019-05-13T10:13:45.101Z,36.25
2019-05-13T10:14:45.090Z,36.46
2019-05-13T10:15:48.761Z,36.46
2019-05-13T10:16:45.085Z,36.76
2019-05-13T10:17:45.063Z,36.76
2019-05-13T10:18:45.053Z,36.25
2019-05-13T10:19:45.033Z,35.97
2019-05-13T10:20:45.045Z,35.05
2019-05-13T10:21:45.009Z,34.44
2019-05-13T10:22:44.995Z,34.63
2019-05-13T10:23:44.985Z,34.43
2019-05-13T10:24:44.987Z,35.53
2019-05-13T10:25:44.974Z,34.21
2019-05-13T10:26:44.953Z,34.39
2019-05-13T10:27:44.939Z,33.89
2019-05-13T10:28:44.937Z,34.39
2019-05-13T10:29:44.929Z,35.29
2019-05-13T10:30:44.914Z,35.99
2019-05-13T10:31:44.898Z,36.30
2019-05-13T10:32:44.885Z,35.70
2019-05-13T10:33:44.875Z,36.49
2019-05-13T10:34:44.927Z,35.90
2019-05-13T10:35:44.854Z,35.90
2019-05-13T10:36:44.854Z,35.90
2019-05-13T10:37:44.839Z,34.30
2019-05-13T10:38:44.827Z,34.70
2019-05-13T10:39:44.805Z,34.19
2019-05-13T10:40:44.799Z,33.28
2019-05-13T10:41:44.785Z,32.45
2019-05-13T10:42:44.786Z,32.23
2019-05-13T10:43:44.967Z,30.57
2019-05-13T10:44:44.758Z,29.54
2019-05-13T10:45:44.746Z,28.62
2019-05-13T10:46:44.733Z,28.22
2019-05-13T10:47:44.729Z,26.90
2019-05-13T10:48:44.712Z,26.58
2019-05-13T10:49:44.697Z,27.08
2019-05-13T10:50:44.710Z,26.15
2019-05-13T10:51:44.672Z,25.21
2019-05-13T10:52:44.667Z,25.07
2019-05-13T10:53:44.657Z,23.58
2019-05-13T10:54:44.655Z,25.42
2019-05-13T10:55:44.635Z,25.21
2019-05-13T10:56:44.628Z,25.43
2019-05-13T10:57:44.612Z,26.07
2019-05-13T10:58:44.604Z,26.18
2019-05-13T10:59:44.595Z,25.99
2019-05-13T11:00:44.577Z,27.00
2019-05-13T11:01:44.571Z,25.50
2019-05-13T11:02:44.561Z,23.43
2019-05-13T11:03:44.549Z,22.27
2019-05-13T11:04:44.551Z,21.22
2019-05-13T11:05:44.875Z,19.71
2019-05-13T11:06:44.535Z,20.36
2019-05-13T11:07:44.503Z,22.21
2019-05-13T11:08:44.484Z,22.95
2019-05-13T11:09:44.487Z,24.88
2019-05-13T11:10:44.477Z,25.82
2019-05-13T11:11:44.473Z,25.32
2019-05-13T11:12:44.442Z,26.06
2019-05-13T11:13:54.356Z,27.28
2019-05-13T11:14:46.782Z,26.29
2019-05-13T11:15:45.937Z,24.61
2019-05-13T11:16:44.405Z,22.86
2019-05-13T11:17:44.392Z,22.03
2019-05-13T11:18:44.385Z,21.39
2019-05-13T11:19:44.377Z,20.39
2019-05-13T11:20:44.372Z,20.78
2019-05-13T11:21:44.570Z,19.17
2019-05-13T11:22:44.348Z,20.14
2019-05-13T11:23:44.324Z,18.33
2019-05-13T11:24:44.318Z,18.45
2019-05-13T11:25:44.322Z,18.95
2019-05-13T11:26:44.286Z,20.10
2019-05-13T11:27:44.305Z,21.44
2019-05-13T11:28:44.277Z,22.37
2019-05-13T11:29:44.263Z,23.21
2019-05-13T11:30:44.266Z,24.23
2019-05-13T11:31:44.240Z,24.95
2019-05-13T11:32:44.228Z,25.38
2019-05-13T11:33:44.229Z,26.09
2019-05-13T11:34:44.226Z,26.02
2019-05-13T11:35:44.198Z,25.98
2019-05-13T11:36:44.196Z,26.50
2019-05-13T11:37:44.208Z,26.52
2019-05-13T11:38:44.169Z,26.82
2019-05-13T11:39:44.185Z,27.55
2019-05-13T11:40:44.141Z,26.82
2019-05-13T11:41:44.129Z,24.95
2019-05-13T11:42:44.127Z,24.01
2019-05-13T11:43:44.148Z,23.18
2019-05-13T11:44:44.101Z,22.65
2019-05-13T11:45:44.086Z,22.73
2019-05-13T11:46:44.079Z,22.11
2019-05-13T11:47:44.067Z,20.59
2019-05-13T11:48:44.064Z,19.68
2019-05-13T11:49:44.046Z,18.36
2019-05-13T11:50:50.094Z,18.76
2019-05-13T11:51:45.035Z,18.05
2019-05-13T11:52:44.381Z,17.55
2019-05-13T11:53:44.065Z,16.74
2019-05-13T11:54:43.996Z,16.94
2019-05-13T11:55:43.978Z,16.94
2019-05-13T11:56:49.460Z,17.64
2019-05-13T11:57:44.958Z,16.64
2019-05-13T11:58:43.943Z,16.53
2019-05-13T11:59:52.687Z,16.93
2019-05-13T12:01:25.597Z,17.23
2019-05-13T12:02:25.588Z,17.14
2019-05-13T12:04:07.724Z,16.66
2019-05-13T12:05:07.713Z,17.35
2019-05-13T12:06:07.695Z,17.59
2019-05-13T12:07:07.684Z,18.13
2019-05-13T12:08:07.666Z,19.86
2019-05-13T12:09:07.654Z,20.79
2019-05-13T12:10:07.650Z,21.62
2019-05-13T12:11:07.657Z,21.53
2019-05-13T12:12:07.623Z,22.44
2019-05-13T12:13:07.616Z,22.27
2019-05-13T12:14:07.608Z,22.98
2019-05-13T12:15:33.678Z,23.39
2019-05-13T12:16:08.579Z,23.21
2019-05-13T12:17:07.568Z,24.33
2019-05-13T12:18:07.593Z,24.84
2019-05-13T12:19:07.586Z,24.74
2019-05-13T12:20:07.535Z,24.64
2019-05-13T12:21:07.544Z,25.04
2019-05-13T12:22:07.598Z,24.43
2019-05-13T12:23:07.524Z,25.03
2019-05-13T12:24:11.089Z,24.82
2019-05-13T12:25:07.538Z,25.32
2019-05-13T12:26:07.519Z,24.92
2019-05-13T12:27:07.460Z,24.82
2019-05-13T12:28:07.452Z,24.12
2019-05-13T12:29:14.609Z,24.04
2019-05-13T12:30:08.424Z,24.95
2019-05-13T12:31:07.444Z,25.36
2019-05-13T12:32:07.399Z,25.67
2019-05-13T12:33:07.390Z,25.37
2019-05-13T12:34:07.388Z,25.47
2019-05-13T12:35:07.370Z,25.18
2019-05-13T12:36:07.366Z,25.48
2019-05-13T12:37:07.349Z,26.29
2019-05-13T12:38:07.340Z,25.79
2019-05-13T12:39:07.334Z,26.71
2019-05-13T12:40:07.361Z,26.61
2019-05-13T12:41:07.307Z,26.20
2019-05-13T12:42:07.302Z,25.89
2019-05-13T12:43:07.284Z,26.58
2019-05-13T12:44:07.281Z,26.38
2019-05-13T12:45:10.225Z,26.99
2019-05-13T12:46:08.248Z,26.68
2019-05-13T12:47:07.252Z,26.87
2019-05-13T12:48:07.234Z,26.77
2019-05-13T12:49:07.251Z,26.37
2019-05-13T12:50:07.204Z,26.26
2019-05-13T12:51:07.226Z,25.85
2019-05-13T12:52:07.214Z,26.06
2019-05-13T12:53:07.172Z,25.84
2019-05-13T12:54:07.161Z,25.84